sensor_id;sensor_type;location;lat;lon;timestamp;P1;durP1;ratioP1;P2;durP2;ratioP2
3085;SDS011;52812;48.960;9.108;2024-03-29T00:00:39;3.17;;;2.30;;
3085;SDS011;52812;48.960;9.108;2024-03-29T00:03:05;3.40;;;2.20;;
3085;SDS011;52812;48.960;9.108;2024-03-29T00:05:32;4.73;;;2.83;;
3085;SDS011;52812;48.960;9.108;2024-03-29T00:08:00;5.20;;;3.63;;
3085;SDS011;52812;48.960;9.108;2024-03-29T00:10:26;2.93;;;2.63;;
3085;SDS011;52812;48.960;9.108;2024-03-29T00:12:52;4.43;;;2.90;;
3085;SDS011;52812;48.960;9.108;2024-03-29T00:15:18;4.37;;;2.47;;
3085;SDS011;52812;48.960;9.108;2024-03-29T00:17:43;4.73;;;2.43;;
3085;SDS011;52812;48.960;9.108;2024-03-29T00:20:09;3.43;;;2.47;;
3085;SDS011;52812;48.960;9.108;2024-03-29T00:22:35;3.60;;;2.70;;
3085;SDS011;52812;48.960;9.108;2024-03-29T00:25:00;2.80;;;2.13;;
3085;SDS011;52812;48.960;9.108;2024-03-29T00:27:26;2.43;;;1.90;;
3085;SDS011;52812;48.960;9.108;2024-03-29T00:29:53;2.80;;;2.20;;
3085;SDS011;52812;48.960;9.108;2024-03-29T00:32:19;2.70;;;2.00;;
3085;SDS011;52812;48.960;9.108;2024-03-29T00:34:46;4.17;;;2.20;;
3085;SDS011;52812;48.960;9.108;2024-03-29T00:37:14;3.70;;;2.57;;
3085;SDS011;52812;48.960;9.108;2024-03-29T00:39:40;5.10;;;2.47;;
3085;SDS011;52812;48.960;9.108;2024-03-29T00:42:06;2.17;;;1.90;;
3085;SDS011;52812;48.960;9.108;2024-03-29T00:44:33;3.40;;;2.10;;
3085;SDS011;52812;48.960;9.108;2024-03-29T00:47:03;3.40;;;2.20;;
3085;SDS011;52812;48.960;9.108;2024-03-29T00:49:29;8.03;;;2.50;;
3085;SDS011;52812;48.960;9.108;2024-03-29T00:51:55;4.50;;;2.43;;
3085;SDS011;52812;48.960;9.108;2024-03-29T00:54:21;2.30;;;2.10;;
3085;SDS011;52812;48.960;9.108;2024-03-29T00:56:48;3.10;;;2.00;;
3085;SDS011;52812;48.960;9.108;2024-03-29T00:59:17;2.87;;;2.07;;
3085;SDS011;52812;48.960;9.108;2024-03-29T01:01:43;2.57;;;2.10;;
3085;SDS011;52812;48.960;9.108;2024-03-29T01:04:09;3.00;;;2.17;;
3085;SDS011;52812;48.960;9.108;2024-03-29T01:06:35;2.40;;;1.90;;
3085;SDS011;52812;48.960;9.108;2024-03-29T01:09:01;2.50;;;2.10;;
3085;SDS011;52812;48.960;9.108;2024-03-29T01:11:28;3.33;;;2.20;;
3085;SDS011;52812;48.960;9.108;2024-03-29T01:13:54;4.27;;;2.33;;
3085;SDS011;52812;48.960;9.108;2024-03-29T01:16:20;6.80;;;2.50;;
3085;SDS011;52812;48.960;9.108;2024-03-29T01:18:45;3.90;;;2.10;;
3085;SDS011;52812;48.960;9.108;2024-03-29T01:21:12;2.70;;;2.10;;
3085;SDS011;52812;48.960;9.108;2024-03-29T01:23:38;2.67;;;2.10;;
3085;SDS011;52812;48.960;9.108;2024-03-29T01:26:04;4.33;;;2.57;;
3085;SDS011;52812;48.960;9.108;2024-03-29T01:28:31;4.77;;;2.00;;
3085;SDS011;52812;48.960;9.108;2024-03-29T01:30:56;2.93;;;2.03;;
3085;SDS011;52812;48.960;9.108;2024-03-29T01:33:23;2.87;;;1.97;;
3085;SDS011;52812;48.960;9.108;2024-03-29T01:35:49;3.13;;;2.30;;
3085;SDS011;52812;48.960;9.108;2024-03-29T01:38:15;4.63;;;2.23;;
3085;SDS011;52812;48.960;9.108;2024-03-29T01:40:41;3.37;;;1.97;;
3085;SDS011;52812;48.960;9.108;2024-03-29T01:43:06;2.50;;;2.00;;
3085;SDS011;52812;48.960;9.108;2024-03-29T01:45:36;3.47;;;2.27;;
3085;SDS011;52812;48.960;9.108;2024-03-29T01:48:04;4.07;;;2.17;;
3085;SDS011;52812;48.960;9.108;2024-03-29T01:50:31;2.53;;;1.97;;
3085;SDS011;52812;48.960;9.108;2024-03-29T01:52:57;2.77;;;2.10;;
3085;SDS011;52812;48.960;9.108;2024-03-29T01:55:26;3.40;;;2.00;;
3085;SDS011;52812;48.960;9.108;2024-03-29T01:57:51;4.03;;;2.13;;
3085;SDS011;52812;48.960;9.108;2024-03-29T02:00:18;3.30;;;2.37;;
3085;SDS011;52812;48.960;9.108;2024-03-29T02:02:44;4.70;;;2.30;;
3085;SDS011;52812;48.960;9.108;2024-03-29T02:05:10;3.73;;;2.50;;
3085;SDS011;52812;48.960;9.108;2024-03-29T02:07:36;2.83;;;2.20;;
3085;SDS011;52812;48.960;9.108;2024-03-29T02:10:03;4.40;;;2.30;;
3085;SDS011;52812;48.960;9.108;2024-03-29T02:12:32;3.10;;;2.30;;
3085;SDS011;52812;48.960;9.108;2024-03-29T02:14:58;3.40;;;2.40;;
3085;SDS011;52812;48.960;9.108;2024-03-29T02:17:24;3.57;;;2.10;;
3085;SDS011;52812;48.960;9.108;2024-03-29T02:19:50;2.40;;;1.97;;
3085;SDS011;52812;48.960;9.108;2024-03-29T02:22:15;3.00;;;2.37;;
3085;SDS011;52812;48.960;9.108;2024-03-29T02:24:44;3.37;;;2.30;;
3085;SDS011;52812;48.960;9.108;2024-03-29T02:27:10;3.33;;;2.20;;
3085;SDS011;52812;48.960;9.108;2024-03-29T02:29:36;3.20;;;2.73;;
3085;SDS011;52812;48.960;9.108;2024-03-29T02:32:05;3.43;;;2.30;;
3085;SDS011;52812;48.960;9.108;2024-03-29T02:34:30;1.90;;;1.70;;
3085;SDS011;52812;48.960;9.108;2024-03-29T02:36:56;3.10;;;2.03;;
3085;SDS011;52812;48.960;9.108;2024-03-29T02:39:22;2.73;;;1.93;;
3085;SDS011;52812;48.960;9.108;2024-03-29T02:41:48;2.40;;;1.97;;
3085;SDS011;52812;48.960;9.108;2024-03-29T02:44:13;2.70;;;1.80;;
3085;SDS011;52812;48.960;9.108;2024-03-29T02:46:41;2.67;;;2.47;;
3085;SDS011;52812;48.960;9.108;2024-03-29T02:49:07;2.37;;;2.10;;
3085;SDS011;52812;48.960;9.108;2024-03-29T02:51:33;3.20;;;2.27;;
3085;SDS011;52812;48.960;9.108;2024-03-29T02:53:58;3.50;;;2.10;;
3085;SDS011;52812;48.960;9.108;2024-03-29T02:56:24;5.33;;;2.23;;
3085;SDS011;52812;48.960;9.108;2024-03-29T02:58:49;2.87;;;2.17;;
3085;SDS011;52812;48.960;9.108;2024-03-29T03:01:15;2.80;;;1.90;;
3085;SDS011;52812;48.960;9.108;2024-03-29T03:03:41;5.10;;;2.20;;
3085;SDS011;52812;48.960;9.108;2024-03-29T03:06:06;2.40;;;2.20;;
3085;SDS011;52812;48.960;9.108;2024-03-29T03:08:32;3.30;;;1.80;;
3085;SDS011;52812;48.960;9.108;2024-03-29T03:11:18;3.10;;;2.80;;
3085;SDS011;52812;48.960;9.108;2024-03-29T03:13:43;4.00;;;2.50;;
3085;SDS011;52812;48.960;9.108;2024-03-29T03:16:09;2.90;;;2.00;;
3085;SDS011;52812;48.960;9.108;2024-03-29T03:18:35;3.43;;;2.00;;
3085;SDS011;52812;48.960;9.108;2024-03-29T03:21:01;3.80;;;2.00;;
3085;SDS011;52812;48.960;9.108;2024-03-29T03:23:26;2.33;;;2.00;;
3085;SDS011;52812;48.960;9.108;2024-03-29T03:25:56;2.63;;;1.90;;
3085;SDS011;52812;48.960;9.108;2024-03-29T03:28:23;4.13;;;2.70;;
3085;SDS011;52812;48.960;9.108;2024-03-29T03:30:49;4.30;;;3.53;;
3085;SDS011;52812;48.960;9.108;2024-03-29T03:33:15;7.07;;;4.53;;
3085;SDS011;52812;48.960;9.108;2024-03-29T03:35:41;4.10;;;2.87;;
3085;SDS011;52812;48.960;9.108;2024-03-29T03:38:07;3.63;;;3.00;;
3085;SDS011;52812;48.960;9.108;2024-03-29T03:40:34;4.20;;;3.80;;
3085;SDS011;52812;48.960;9.108;2024-03-29T03:43:00;3.80;;;3.20;;
3085;SDS011;52812;48.960;9.108;2024-03-29T03:45:27;5.40;;;3.50;;
3085;SDS011;52812;48.960;9.108;2024-03-29T03:47:52;2.30;;;1.93;;
3085;SDS011;52812;48.960;9.108;2024-03-29T03:50:18;3.83;;;2.33;;
3085;SDS011;52812;48.960;9.108;2024-03-29T03:52:44;2.50;;;2.30;;
3085;SDS011;52812;48.960;9.108;2024-03-29T03:55:09;2.37;;;1.90;;
3085;SDS011;52812;48.960;9.108;2024-03-29T03:57:35;4.07;;;2.03;;
3085;SDS011;52812;48.960;9.108;2024-03-29T04:00:01;2.30;;;1.87;;
3085;SDS011;52812;48.960;9.108;2024-03-29T04:02:28;3.93;;;1.90;;
3085;SDS011;52812;48.960;9.108;2024-03-29T04:04:54;1.97;;;1.80;;
3085;SDS011;52812;48.960;9.108;2024-03-29T04:07:19;4.07;;;1.90;;
3085;SDS011;52812;48.960;9.108;2024-03-29T04:09:45;1.67;;;1.57;;
3085;SDS011;52812;48.960;9.108;2024-03-29T04:12:10;1.83;;;1.70;;
3085;SDS011;52812;48.960;9.108;2024-03-29T04:14:36;2.30;;;1.67;;
3085;SDS011;52812;48.960;9.108;2024-03-29T04:17:02;1.90;;;1.70;;
3085;SDS011;52812;48.960;9.108;2024-03-29T04:19:28;1.63;;;1.53;;
3085;SDS011;52812;48.960;9.108;2024-03-29T04:21:53;2.27;;;1.80;;
3085;SDS011;52812;48.960;9.108;2024-03-29T04:24:19;2.83;;;1.80;;
3085;SDS011;52812;48.960;9.108;2024-03-29T04:26:44;1.93;;;1.60;;
3085;SDS011;52812;48.960;9.108;2024-03-29T04:29:12;3.03;;;1.70;;
3085;SDS011;52812;48.960;9.108;2024-03-29T04:31:37;1.90;;;1.80;;
3085;SDS011;52812;48.960;9.108;2024-03-29T04:34:03;1.77;;;1.67;;
3085;SDS011;52812;48.960;9.108;2024-03-29T04:36:29;1.70;;;1.50;;
3085;SDS011;52812;48.960;9.108;2024-03-29T04:38:54;1.97;;;1.53;;
3085;SDS011;52812;48.960;9.108;2024-03-29T04:41:20;2.70;;;1.83;;
3085;SDS011;52812;48.960;9.108;2024-03-29T04:43:46;1.80;;;1.70;;
3085;SDS011;52812;48.960;9.108;2024-03-29T04:46:12;2.80;;;1.53;;
3085;SDS011;52812;48.960;9.108;2024-03-29T04:48:39;2.20;;;1.50;;
3085;SDS011;52812;48.960;9.108;2024-03-29T04:51:10;2.27;;;1.60;;
3085;SDS011;52812;48.960;9.108;2024-03-29T04:53:36;2.00;;;1.80;;
3085;SDS011;52812;48.960;9.108;2024-03-29T04:56:03;1.80;;;1.70;;
3085;SDS011;52812;48.960;9.108;2024-03-29T04:58:29;1.70;;;1.60;;
3085;SDS011;52812;48.960;9.108;2024-03-29T05:00:55;1.70;;;1.50;;
3085;SDS011;52812;48.960;9.108;2024-03-29T05:03:22;1.70;;;1.60;;
3085;SDS011;52812;48.960;9.108;2024-03-29T05:05:51;2.17;;;1.60;;
3085;SDS011;52812;48.960;9.108;2024-03-29T05:08:17;1.83;;;1.63;;
3085;SDS011;52812;48.960;9.108;2024-03-29T05:10:50;1.70;;;1.60;;
3085;SDS011;52812;48.960;9.108;2024-03-29T05:13:18;1.60;;;1.50;;
3085;SDS011;52812;48.960;9.108;2024-03-29T05:15:45;1.60;;;1.50;;
3085;SDS011;52812;48.960;9.108;2024-03-29T05:18:12;1.57;;;1.30;;
3085;SDS011;52812;48.960;9.108;2024-03-29T05:20:38;3.00;;;1.57;;
3085;SDS011;52812;48.960;9.108;2024-03-29T05:23:06;2.20;;;1.70;;
3085;SDS011;52812;48.960;9.108;2024-03-29T05:25:32;1.77;;;1.50;;
3085;SDS011;52812;48.960;9.108;2024-03-29T05:27:58;2.03;;;1.60;;
3085;SDS011;52812;48.960;9.108;2024-03-29T05:30:23;2.07;;;1.60;;
3085;SDS011;52812;48.960;9.108;2024-03-29T05:32:52;2.13;;;1.53;;
3085;SDS011;52812;48.960;9.108;2024-03-29T05:35:18;2.07;;;1.60;;
3085;SDS011;52812;48.960;9.108;2024-03-29T05:37:43;1.60;;;1.43;;
3085;SDS011;52812;48.960;9.108;2024-03-29T05:40:14;1.57;;;1.40;;
3085;SDS011;52812;48.960;9.108;2024-03-29T05:42:40;2.30;;;1.87;;
3085;SDS011;52812;48.960;9.108;2024-03-29T05:45:20;1.73;;;1.63;;
3085;SDS011;52812;48.960;9.108;2024-03-29T05:47:49;2.03;;;1.70;;
3085;SDS011;52812;48.960;9.108;2024-03-29T05:50:14;2.47;;;1.80;;
3085;SDS011;52812;48.960;9.108;2024-03-29T05:52:40;2.10;;;1.70;;
3085;SDS011;52812;48.960;9.108;2024-03-29T05:55:06;2.07;;;1.90;;
3085;SDS011;52812;48.960;9.108;2024-03-29T05:57:34;2.20;;;1.63;;
3085;SDS011;52812;48.960;9.108;2024-03-29T06:00:03;2.80;;;1.63;;
3085;SDS011;52812;48.960;9.108;2024-03-29T06:02:30;2.43;;;1.80;;
3085;SDS011;52812;48.960;9.108;2024-03-29T06:04:55;1.97;;;1.50;;
3085;SDS011;52812;48.960;9.108;2024-03-29T06:07:21;5.40;;;3.23;;
3085;SDS011;52812;48.960;9.108;2024-03-29T06:09:47;2.90;;;2.10;;
3085;SDS011;52812;48.960;9.108;2024-03-29T06:12:12;2.93;;;2.20;;
3085;SDS011;52812;48.960;9.108;2024-03-29T06:14:38;2.43;;;1.83;;
3085;SDS011;52812;48.960;9.108;2024-03-29T06:17:22;2.30;;;1.63;;
3085;SDS011;52812;48.960;9.108;2024-03-29T06:19:51;1.83;;;1.70;;
3085;SDS011;52812;48.960;9.108;2024-03-29T06:22:20;7.27;;;4.20;;
3085;SDS011;52812;48.960;9.108;2024-03-29T06:24:45;23.97;;;13.30;;
3085;SDS011;52812;48.960;9.108;2024-03-29T06:27:12;15.17;;;8.00;;
3085;SDS011;52812;48.960;9.108;2024-03-29T06:29:45;10.90;;;6.57;;
3085;SDS011;52812;48.960;9.108;2024-03-29T06:32:10;13.53;;;7.93;;
3085;SDS011;52812;48.960;9.108;2024-03-29T06:34:36;14.73;;;8.27;;
3085;SDS011;52812;48.960;9.108;2024-03-29T06:37:02;11.90;;;6.87;;
3085;SDS011;52812;48.960;9.108;2024-03-29T06:39:28;12.50;;;6.80;;
3085;SDS011;52812;48.960;9.108;2024-03-29T06:41:53;4.67;;;3.10;;
3085;SDS011;52812;48.960;9.108;2024-03-29T06:44:19;3.70;;;2.70;;
3085;SDS011;52812;48.960;9.108;2024-03-29T06:46:48;5.90;;;3.50;;
3085;SDS011;52812;48.960;9.108;2024-03-29T06:49:14;3.03;;;2.73;;
3085;SDS011;52812;48.960;9.108;2024-03-29T06:51:40;3.40;;;2.60;;
3085;SDS011;52812;48.960;9.108;2024-03-29T06:54:06;3.33;;;2.20;;
3085;SDS011;52812;48.960;9.108;2024-03-29T06:56:31;3.00;;;1.90;;
3085;SDS011;52812;48.960;9.108;2024-03-29T06:58:58;2.60;;;1.93;;
3085;SDS011;52812;48.960;9.108;2024-03-29T07:01:27;3.37;;;2.13;;
3085;SDS011;52812;48.960;9.108;2024-03-29T07:03:52;2.17;;;1.60;;
3085;SDS011;52812;48.960;9.108;2024-03-29T07:06:18;2.60;;;1.70;;
3085;SDS011;52812;48.960;9.108;2024-03-29T07:08:44;2.37;;;1.60;;
3085;SDS011;52812;48.960;9.108;2024-03-29T07:11:10;2.00;;;1.70;;
3085;SDS011;52812;48.960;9.108;2024-03-29T07:13:35;2.07;;;1.60;;
3085;SDS011;52812;48.960;9.108;2024-03-29T07:16:02;1.80;;;1.60;;
3085;SDS011;52812;48.960;9.108;2024-03-29T07:18:28;1.63;;;1.50;;
3085;SDS011;52812;48.960;9.108;2024-03-29T07:20:54;2.77;;;1.80;;
3085;SDS011;52812;48.960;9.108;2024-03-29T07:23:20;2.10;;;1.80;;
3085;SDS011;52812;48.960;9.108;2024-03-29T07:25:56;1.97;;;1.57;;
3085;SDS011;52812;48.960;9.108;2024-03-29T07:28:23;1.70;;;1.60;;
3085;SDS011;52812;48.960;9.108;2024-03-29T07:30:48;3.50;;;3.20;;
3085;SDS011;52812;48.960;9.108;2024-03-29T07:33:15;5.20;;;4.03;;
3085;SDS011;52812;48.960;9.108;2024-03-29T07:35:41;7.47;;;5.27;;
3085;SDS011;52812;48.960;9.108;2024-03-29T07:38:07;11.30;;;7.20;;
3085;SDS011;52812;48.960;9.108;2024-03-29T07:40:33;10.33;;;6.40;;
3085;SDS011;52812;48.960;9.108;2024-03-29T07:42:59;5.70;;;4.10;;
3085;SDS011;52812;48.960;9.108;2024-03-29T07:45:25;3.43;;;2.87;;
3085;SDS011;52812;48.960;9.108;2024-03-29T07:47:52;3.10;;;2.70;;
3085;SDS011;52812;48.960;9.108;2024-03-29T07:50:18;3.63;;;2.60;;
3085;SDS011;52812;48.960;9.108;2024-03-29T07:52:47;3.50;;;2.53;;
3085;SDS011;52812;48.960;9.108;2024-03-29T07:55:13;2.73;;;1.97;;
3085;SDS011;52812;48.960;9.108;2024-03-29T07:57:39;4.23;;;2.20;;
3085;SDS011;52812;48.960;9.108;2024-03-29T08:00:05;3.43;;;2.37;;
3085;SDS011;52812;48.960;9.108;2024-03-29T08:02:34;3.43;;;2.50;;
3085;SDS011;52812;48.960;9.108;2024-03-29T08:04:59;5.40;;;2.40;;
3085;SDS011;52812;48.960;9.108;2024-03-29T08:07:25;2.20;;;2.00;;
3085;SDS011;52812;48.960;9.108;2024-03-29T08:09:51;3.60;;;2.60;;
3085;SDS011;52812;48.960;9.108;2024-03-29T08:12:16;5.10;;;2.60;;
3085;SDS011;52812;48.960;9.108;2024-03-29T08:14:42;2.60;;;2.40;;
3085;SDS011;52812;48.960;9.108;2024-03-29T08:17:07;2.93;;;2.13;;
3085;SDS011;52812;48.960;9.108;2024-03-29T08:19:39;4.93;;;2.30;;
3085;SDS011;52812;48.960;9.108;2024-03-29T08:22:06;3.27;;;2.30;;
3085;SDS011;52812;48.960;9.108;2024-03-29T08:24:35;2.73;;;2.53;;
3085;SDS011;52812;48.960;9.108;2024-03-29T08:27:03;3.20;;;2.17;;
3085;SDS011;52812;48.960;9.108;2024-03-29T08:29:30;3.77;;;2.13;;
3085;SDS011;52812;48.960;9.108;2024-03-29T08:31:56;3.87;;;2.37;;
3085;SDS011;52812;48.960;9.108;2024-03-29T08:34:22;5.80;;;2.13;;
3085;SDS011;52812;48.960;9.108;2024-03-29T08:36:47;6.37;;;3.00;;
3085;SDS011;52812;48.960;9.108;2024-03-29T08:39:13;2.40;;;2.20;;
3085;SDS011;52812;48.960;9.108;2024-03-29T08:41:38;7.30;;;2.90;;
3085;SDS011;52812;48.960;9.108;2024-03-29T08:44:07;3.67;;;2.20;;
3085;SDS011;52812;48.960;9.108;2024-03-29T08:46:32;1.70;;;1.60;;
3085;SDS011;52812;48.960;9.108;2024-03-29T08:48:58;2.63;;;1.80;;
3085;SDS011;52812;48.960;9.108;2024-03-29T08:51:24;2.43;;;1.83;;
3085;SDS011;52812;48.960;9.108;2024-03-29T08:53:49;2.50;;;1.70;;
3085;SDS011;52812;48.960;9.108;2024-03-29T08:56:15;3.07;;;2.10;;
3085;SDS011;52812;48.960;9.108;2024-03-29T08:58:41;1.77;;;1.63;;
3085;SDS011;52812;48.960;9.108;2024-03-29T09:01:07;2.70;;;1.90;;
3085;SDS011;52812;48.960;9.108;2024-03-29T09:03:32;2.33;;;1.80;;
3085;SDS011;52812;48.960;9.108;2024-03-29T09:05:58;2.80;;;1.80;;
3085;SDS011;52812;48.960;9.108;2024-03-29T09:08:24;3.53;;;1.70;;
3085;SDS011;52812;48.960;9.108;2024-03-29T09:10:50;3.10;;;2.10;;
3085;SDS011;52812;48.960;9.108;2024-03-29T09:13:15;2.10;;;1.90;;
3085;SDS011;52812;48.960;9.108;2024-03-29T09:15:41;2.37;;;1.70;;
3085;SDS011;52812;48.960;9.108;2024-03-29T09:18:07;2.87;;;2.00;;
3085;SDS011;52812;48.960;9.108;2024-03-29T09:20:42;2.30;;;2.10;;
3085;SDS011;52812;48.960;9.108;2024-03-29T09:23:09;2.33;;;1.83;;
3085;SDS011;52812;48.960;9.108;2024-03-29T09:25:39;2.30;;;2.10;;
3085;SDS011;52812;48.960;9.108;2024-03-29T09:28:05;2.40;;;2.20;;
3085;SDS011;52812;48.960;9.108;2024-03-29T09:30:31;3.37;;;2.30;;
3085;SDS011;52812;48.960;9.108;2024-03-29T09:32:57;3.30;;;2.47;;
3085;SDS011;52812;48.960;9.108;2024-03-29T09:35:23;3.53;;;2.50;;
3085;SDS011;52812;48.960;9.108;2024-03-29T09:37:49;3.43;;;2.57;;
3085;SDS011;52812;48.960;9.108;2024-03-29T09:40:15;4.83;;;2.70;;
3085;SDS011;52812;48.960;9.108;2024-03-29T09:42:43;7.07;;;3.53;;
3085;SDS011;52812;48.960;9.108;2024-03-29T09:45:09;5.30;;;2.80;;
3085;SDS011;52812;48.960;9.108;2024-03-29T09:47:36;3.37;;;3.07;;
3085;SDS011;52812;48.960;9.108;2024-03-29T09:50:02;4.90;;;3.60;;
3085;SDS011;52812;48.960;9.108;2024-03-29T09:52:31;4.83;;;3.00;;
3085;SDS011;52812;48.960;9.108;2024-03-29T09:54:58;3.27;;;2.30;;
3085;SDS011;52812;48.960;9.108;2024-03-29T09:57:24;5.43;;;2.77;;
3085;SDS011;52812;48.960;9.108;2024-03-29T09:59:54;4.00;;;2.70;;
3085;SDS011;52812;48.960;9.108;2024-03-29T10:02:20;2.60;;;2.20;;
3085;SDS011;52812;48.960;9.108;2024-03-29T10:04:48;2.63;;;2.20;;
3085;SDS011;52812;48.960;9.108;2024-03-29T10:07:16;2.73;;;2.40;;
3085;SDS011;52812;48.960;9.108;2024-03-29T10:09:43;2.37;;;2.10;;
3085;SDS011;52812;48.960;9.108;2024-03-29T10:12:09;3.30;;;2.50;;
3085;SDS011;52812;48.960;9.108;2024-03-29T10:14:45;4.33;;;3.20;;
3085;SDS011;52812;48.960;9.108;2024-03-29T10:17:36;4.27;;;3.20;;
3085;SDS011;52812;48.960;9.108;2024-03-29T10:20:03;3.80;;;3.20;;
3085;SDS011;52812;48.960;9.108;2024-03-29T10:22:30;3.53;;;2.70;;
3085;SDS011;52812;48.960;9.108;2024-03-29T10:25:05;3.17;;;2.87;;
3085;SDS011;52812;48.960;9.108;2024-03-29T10:27:31;4.43;;;3.53;;
3085;SDS011;52812;48.960;9.108;2024-03-29T10:29:57;5.00;;;3.13;;
3085;SDS011;52812;48.960;9.108;2024-03-29T10:32:23;4.97;;;3.20;;
3085;SDS011;52812;48.960;9.108;2024-03-29T10:34:49;5.63;;;3.23;;
3085;SDS011;52812;48.960;9.108;2024-03-29T10:37:15;5.10;;;3.50;;
3085;SDS011;52812;48.960;9.108;2024-03-29T10:39:50;6.03;;;3.50;;
3085;SDS011;52812;48.960;9.108;2024-03-29T10:42:16;4.17;;;3.20;;
3085;SDS011;52812;48.960;9.108;2024-03-29T10:44:42;4.10;;;3.47;;
3085;SDS011;52812;48.960;9.108;2024-03-29T10:47:08;4.23;;;3.37;;
3085;SDS011;52812;48.960;9.108;2024-03-29T10:49:36;3.67;;;3.17;;
3085;SDS011;52812;48.960;9.108;2024-03-29T10:52:04;5.00;;;3.70;;
3085;SDS011;52812;48.960;9.108;2024-03-29T10:54:31;4.53;;;3.33;;
3085;SDS011;52812;48.960;9.108;2024-03-29T10:57:04;4.10;;;3.23;;
3085;SDS011;52812;48.960;9.108;2024-03-29T11:00:34;7.23;;;3.30;;
3085;SDS011;52812;48.960;9.108;2024-03-29T11:05:48;4.20;;;3.60;;
3085;SDS011;52812;48.960;9.108;2024-03-29T11:08:24;4.90;;;4.10;;
3085;SDS011;52812;48.960;9.108;2024-03-29T11:10:56;4.30;;;3.53;;
3085;SDS011;52812;48.960;9.108;2024-03-29T11:16:10;3.53;;;3.03;;
3085;SDS011;52812;48.960;9.108;2024-03-29T11:18:36;4.00;;;3.40;;
3085;SDS011;52812;48.960;9.108;2024-03-29T11:21:02;5.10;;;4.23;;
3085;SDS011;52812;48.960;9.108;2024-03-29T11:23:31;4.37;;;3.80;;
3085;SDS011;52812;48.960;9.108;2024-03-29T11:25:57;4.40;;;3.37;;
3085;SDS011;52812;48.960;9.108;2024-03-29T11:31:01;4.57;;;3.30;;
3085;SDS011;52812;48.960;9.108;2024-03-29T11:33:31;5.57;;;3.50;;
3085;SDS011;52812;48.960;9.108;2024-03-29T11:35:59;5.20;;;3.80;;
3085;SDS011;52812;48.960;9.108;2024-03-29T11:38:33;3.63;;;3.10;;
3085;SDS011;52812;48.960;9.108;2024-03-29T11:41:07;4.87;;;3.30;;
3085;SDS011;52812;48.960;9.108;2024-03-29T11:43:35;4.53;;;3.60;;
3085;SDS011;52812;48.960;9.108;2024-03-29T11:46:02;5.10;;;4.20;;
3085;SDS011;52812;48.960;9.108;2024-03-29T11:48:31;3.97;;;3.37;;
3085;SDS011;52812;48.960;9.108;2024-03-29T11:50:56;4.50;;;3.73;;
3085;SDS011;52812;48.960;9.108;2024-03-29T11:53:23;4.17;;;3.70;;
3085;SDS011;52812;48.960;9.108;2024-03-29T11:55:49;4.10;;;3.33;;
3085;SDS011;52812;48.960;9.108;2024-03-29T11:58:22;4.10;;;3.20;;
3085;SDS011;52812;48.960;9.108;2024-03-29T12:00:49;4.00;;;3.60;;
3085;SDS011;52812;48.960;9.108;2024-03-29T12:03:16;3.90;;;3.50;;
3085;SDS011;52812;48.960;9.108;2024-03-29T12:05:43;3.80;;;3.30;;
3085;SDS011;52812;48.960;9.108;2024-03-29T12:08:12;5.30;;;4.07;;
3085;SDS011;52812;48.960;9.108;2024-03-29T12:10:39;4.80;;;3.73;;
3085;SDS011;52812;48.960;9.108;2024-03-29T12:13:04;4.00;;;3.43;;
3085;SDS011;52812;48.960;9.108;2024-03-29T12:15:31;4.10;;;3.70;;
3085;SDS011;52812;48.960;9.108;2024-03-29T12:17:57;4.03;;;3.20;;
3085;SDS011;52812;48.960;9.108;2024-03-29T12:20:24;3.37;;;2.80;;
3085;SDS011;52812;48.960;9.108;2024-03-29T12:22:50;3.00;;;2.70;;
3085;SDS011;52812;48.960;9.108;2024-03-29T12:25:16;3.57;;;2.70;;
3085;SDS011;52812;48.960;9.108;2024-03-29T12:27:45;3.07;;;2.77;;
3085;SDS011;52812;48.960;9.108;2024-03-29T12:30:12;2.87;;;2.30;;
3085;SDS011;52812;48.960;9.108;2024-03-29T12:32:39;3.67;;;2.93;;
3085;SDS011;52812;48.960;9.108;2024-03-29T12:35:11;4.47;;;2.70;;
3085;SDS011;52812;48.960;9.108;2024-03-29T12:37:46;2.93;;;2.63;;
3085;SDS011;52812;48.960;9.108;2024-03-29T12:40:15;6.57;;;3.00;;
3085;SDS011;52812;48.960;9.108;2024-03-29T12:42:47;3.10;;;2.73;;
3085;SDS011;52812;48.960;9.108;2024-03-29T12:45:19;2.90;;;2.60;;
3085;SDS011;52812;48.960;9.108;2024-03-29T12:47:45;3.87;;;3.00;;
3085;SDS011;52812;48.960;9.108;2024-03-29T12:50:28;6.43;;;3.00;;
3085;SDS011;52812;48.960;9.108;2024-03-29T12:53:00;4.40;;;2.57;;
3085;SDS011;52812;48.960;9.108;2024-03-29T12:55:31;3.30;;;2.60;;
3085;SDS011;52812;48.960;9.108;2024-03-29T12:58:00;2.67;;;2.30;;
3085;SDS011;52812;48.960;9.108;2024-03-29T13:00:29;2.50;;;2.20;;
3085;SDS011;52812;48.960;9.108;2024-03-29T13:02:58;2.60;;;2.33;;
3085;SDS011;52812;48.960;9.108;2024-03-29T13:05:24;3.30;;;2.70;;
3085;SDS011;52812;48.960;9.108;2024-03-29T13:07:50;4.80;;;2.73;;
3085;SDS011;52812;48.960;9.108;2024-03-29T13:10:16;3.07;;;2.50;;
3085;SDS011;52812;48.960;9.108;2024-03-29T13:12:46;2.83;;;2.47;;
3085;SDS011;52812;48.960;9.108;2024-03-29T13:15:21;2.70;;;2.30;;
3085;SDS011;52812;48.960;9.108;2024-03-29T13:17:51;2.73;;;2.10;;
3085;SDS011;52812;48.960;9.108;2024-03-29T13:20:19;3.80;;;2.47;;
3085;SDS011;52812;48.960;9.108;2024-03-29T13:22:46;3.03;;;2.60;;
3085;SDS011;52812;48.960;9.108;2024-03-29T13:25:14;2.63;;;2.00;;
3085;SDS011;52812;48.960;9.108;2024-03-29T13:27:41;2.40;;;2.10;;
3085;SDS011;52812;48.960;9.108;2024-03-29T13:30:08;2.20;;;2.00;;
3085;SDS011;52812;48.960;9.108;2024-03-29T13:32:35;3.50;;;2.60;;
3085;SDS011;52812;48.960;9.108;2024-03-29T13:35:00;3.40;;;2.67;;
3085;SDS011;52812;48.960;9.108;2024-03-29T13:37:30;2.77;;;2.57;;
3085;SDS011;52812;48.960;9.108;2024-03-29T13:39:56;3.87;;;2.30;;
3085;SDS011;52812;48.960;9.108;2024-03-29T13:42:22;3.37;;;2.27;;
3085;SDS011;52812;48.960;9.108;2024-03-29T13:44:51;3.40;;;2.50;;
3085;SDS011;52812;48.960;9.108;2024-03-29T13:47:18;2.93;;;2.20;;
3085;SDS011;52812;48.960;9.108;2024-03-29T13:49:43;3.80;;;2.37;;
3085;SDS011;52812;48.960;9.108;2024-03-29T13:52:10;2.20;;;1.80;;
3085;SDS011;52812;48.960;9.108;2024-03-29T13:54:37;2.23;;;1.90;;
3085;SDS011;52812;48.960;9.108;2024-03-29T13:57:02;2.90;;;2.13;;
3085;SDS011;52812;48.960;9.108;2024-03-29T13:59:31;2.13;;;1.90;;
3085;SDS011;52812;48.960;9.108;2024-03-29T14:01:58;2.60;;;1.77;;
3085;SDS011;52812;48.960;9.108;2024-03-29T14:04:24;2.20;;;1.80;;
3085;SDS011;52812;48.960;9.108;2024-03-29T14:06:49;2.00;;;1.80;;
3085;SDS011;52812;48.960;9.108;2024-03-29T14:09:16;1.87;;;1.50;;
3085;SDS011;52812;48.960;9.108;2024-03-29T14:11:41;2.10;;;1.63;;
3085;SDS011;52812;48.960;9.108;2024-03-29T14:14:09;1.90;;;1.70;;
3085;SDS011;52812;48.960;9.108;2024-03-29T14:16:35;1.67;;;1.50;;
3085;SDS011;52812;48.960;9.108;2024-03-29T14:19:02;1.60;;;1.40;;
3085;SDS011;52812;48.960;9.108;2024-03-29T14:21:28;2.70;;;1.60;;
3085;SDS011;52812;48.960;9.108;2024-03-29T14:23:54;2.23;;;1.50;;
3085;SDS011;52812;48.960;9.108;2024-03-29T14:26:21;1.57;;;1.47;;
3085;SDS011;52812;48.960;9.108;2024-03-29T14:28:46;2.10;;;1.90;;
3085;SDS011;52812;48.960;9.108;2024-03-29T14:31:12;1.30;;;1.10;;
3085;SDS011;52812;48.960;9.108;2024-03-29T14:33:38;1.40;;;1.30;;
3085;SDS011;52812;48.960;9.108;2024-03-29T14:36:03;1.40;;;1.30;;
3085;SDS011;52812;48.960;9.108;2024-03-29T14:38:29;1.70;;;1.40;;
3085;SDS011;52812;48.960;9.108;2024-03-29T14:40:55;1.33;;;1.10;;
3085;SDS011;52812;48.960;9.108;2024-03-29T14:43:21;1.60;;;1.30;;
3085;SDS011;52812;48.960;9.108;2024-03-29T14:45:46;2.00;;;1.20;;
3085;SDS011;52812;48.960;9.108;2024-03-29T14:48:15;1.63;;;1.20;;
3085;SDS011;52812;48.960;9.108;2024-03-29T14:50:44;1.60;;;1.37;;
3085;SDS011;52812;48.960;9.108;2024-03-29T14:53:10;1.30;;;1.13;;
3085;SDS011;52812;48.960;9.108;2024-03-29T14:55:36;2.00;;;1.20;;
3085;SDS011;52812;48.960;9.108;2024-03-29T14:58:04;1.30;;;1.10;;
3085;SDS011;52812;48.960;9.108;2024-03-29T15:00:31;1.93;;;1.20;;
3085;SDS011;52812;48.960;9.108;2024-03-29T15:02:56;1.20;;;1.10;;
3085;SDS011;52812;48.960;9.108;2024-03-29T15:05:22;2.10;;;1.30;;
3085;SDS011;52812;48.960;9.108;2024-03-29T15:07:50;1.33;;;1.20;;